sensor_id;sensor_type;location;lat;lon;timestamp;pressure;altitude;pressure_sealevel;temperature;humidity
15604;BME280;7902;49.042;9.092;2023-01-24T00:00:07;100559.69;;;7.96;58.74
15604;BME280;7902;49.042;9.092;2023-01-24T00:02:33;100568.47;;;7.93;58.65
15604;BME280;7902;49.042;9.092;2023-01-24T00:04:59;100568.25;;;7.99;58.23
15604;BME280;7902;49.042;9.092;2023-01-24T00:07:25;100567.44;;;7.97;58.72
15604;BME280;7902;49.042;9.092;2023-01-24T00:09:51;100560.59;;;7.94;58.28
15604;BME280;7902;49.042;9.092;2023-01-24T00:12:17;100557.09;;;7.94;58.57
15604;BME280;7902;49.042;9.092;2023-01-24T00:14:43;100571.03;;;7.94;58.44
15604;BME280;7902;49.042;9.092;2023-01-24T00:17:09;100568.25;;;7.99;58.31
15604;BME280;7902;49.042;9.092;2023-01-24T00:19:35;100563.91;;;7.98;58.16
15604;BME280;7902;49.042;9.092;2023-01-24T00:22:02;100570.28;;;7.91;58.57
15604;BME280;7902;49.042;9.092;2023-01-24T00:24:28;100564.28;;;7.89;58.59
15604;BME280;7902;49.042;9.092;2023-01-24T00:26:55;100568.69;;;7.87;58.79
15604;BME280;7902;49.042;9.092;2023-01-24T00:29:21;100559.34;;;7.81;58.67
15604;BME280;7902;49.042;9.092;2023-01-24T00:31:47;100559.63;;;7.74;59.13
15604;BME280;7902;49.042;9.092;2023-01-24T00:34:13;100564.47;;;7.84;58.68
15604;BME280;7902;49.042;9.092;2023-01-24T00:36:39;100560.25;;;7.80;58.60
15604;BME280;7902;49.042;9.092;2023-01-24T00:39:05;100559.94;;;7.88;58.65
15604;BME280;7902;49.042;9.092;2023-01-24T00:41:30;100569.06;;;7.78;58.95
15604;BME280;7902;49.042;9.092;2023-01-24T00:43:56;100559.66;;;7.72;58.94
15604;BME280;7902;49.042;9.092;2023-01-24T00:46:22;100565.19;;;7.65;59.41
15604;BME280;7902;49.042;9.092;2023-01-24T00:48:48;100573.25;;;7.59;59.09
15604;BME280;7902;49.042;9.092;2023-01-24T00:51:14;100566.94;;;7.87;58.55
15604;BME280;7902;49.042;9.092;2023-01-24T00:53:40;100566.16;;;7.85;58.95
15604;BME280;7902;49.042;9.092;2023-01-24T00:56:06;100566.91;;;7.89;58.26
15604;BME280;7902;49.042;9.092;2023-01-24T00:58:33;100558.19;;;7.88;58.63
15604;BME280;7902;49.042;9.092;2023-01-24T01:00:59;100568.78;;;7.85;59.03
15604;BME280;7902;49.042;9.092;2023-01-24T01:03:28;100574.28;;;7.78;58.72
15604;BME280;7902;49.042;9.092;2023-01-24T01:06:02;100572.75;;;7.96;58.36
15604;BME280;7902;49.042;9.092;2023-01-24T01:08:28;100574.88;;;7.86;58.58
15604;BME280;7902;49.042;9.092;2023-01-24T01:10:54;100586.44;;;7.79;58.66
15604;BME280;7902;49.042;9.092;2023-01-24T01:13:20;100582.94;;;7.80;58.89
15604;BME280;7902;49.042;9.092;2023-01-24T01:15:46;100586.75;;;7.94;58.45
15604;BME280;7902;49.042;9.092;2023-01-24T01:18:12;100586.09;;;7.88;58.68
15604;BME280;7902;49.042;9.092;2023-01-24T01:20:38;100593.00;;;7.90;58.23
15604;BME280;7902;49.042;9.092;2023-01-24T01:23:04;100593.53;;;7.77;58.82
15604;BME280;7902;49.042;9.092;2023-01-24T01:25:30;100579.25;;;7.85;58.86
15604;BME280;7902;49.042;9.092;2023-01-24T01:27:56;100580.88;;;7.88;58.58
15604;BME280;7902;49.042;9.092;2023-01-24T01:30:22;100581.22;;;7.79;58.82
15604;BME280;7902;49.042;9.092;2023-01-24T01:32:48;100572.59;;;7.77;58.90
15604;BME280;7902;49.042;9.092;2023-01-24T01:35:13;100576.53;;;7.87;58.58
15604;BME280;7902;49.042;9.092;2023-01-24T01:37:39;100580.69;;;7.92;58.20
15604;BME280;7902;49.042;9.092;2023-01-24T01:40:06;100571.44;;;7.84;59.00
15604;BME280;7902;49.042;9.092;2023-01-24T01:48:05;100585.06;;;7.92;58.63
15604;BME280;7902;49.042;9.092;2023-01-24T01:50:39;100575.47;;;7.92;58.45
15604;BME280;7902;49.042;9.092;2023-01-24T01:53:06;100575.78;;;7.85;58.71
15604;BME280;7902;49.042;9.092;2023-01-24T01:55:36;100582.41;;;7.93;58.34
15604;BME280;7902;49.042;9.092;2023-01-24T01:58:04;100584.22;;;7.91;58.39
15604;BME280;7902;49.042;9.092;2023-01-24T02:00:30;100579.66;;;7.97;58.09
15604;BME280;7902;49.042;9.092;2023-01-24T02:03:18;100586.22;;;7.85;58.53
15604;BME280;7902;49.042;9.092;2023-01-24T02:06:15;100584.66;;;7.81;58.87
15604;BME280;7902;49.042;9.092;2023-01-24T02:08:43;100591.47;;;7.85;58.50
15604;BME280;7902;49.042;9.092;2023-01-24T02:11:11;100592.38;;;7.84;58.27
15604;BME280;7902;49.042;9.092;2023-01-24T02:13:57;100592.41;;;7.82;59.02
15604;BME280;7902;49.042;9.092;2023-01-24T02:16:43;100592.41;;;7.82;58.50
15604;BME280;7902;49.042;9.092;2023-01-24T02:19:18;100599.22;;;7.86;58.81
15604;BME280;7902;49.042;9.092;2023-01-24T02:21:52;100599.06;;;7.68;59.03
15604;BME280;7902;49.042;9.092;2023-01-24T02:24:32;100597.13;;;7.73;58.89
15604;BME280;7902;49.042;9.092;2023-01-24T02:26:59;100603.63;;;7.86;58.72
15604;BME280;7902;49.042;9.092;2023-01-24T02:29:25;100601.13;;;7.83;58.71
15604;BME280;7902;49.042;9.092;2023-01-24T02:32:02;100606.84;;;7.92;58.54
15604;BME280;7902;49.042;9.092;2023-01-24T02:34:29;100608.63;;;7.92;58.45
15604;BME280;7902;49.042;9.092;2023-01-24T02:36:58;100618.22;;;7.91;58.34
15604;BME280;7902;49.042;9.092;2023-01-24T02:39:29;100610.00;;;7.79;59.10
15604;BME280;7902;49.042;9.092;2023-01-24T02:42:01;100612.31;;;7.86;58.42
15604;BME280;7902;49.042;9.092;2023-01-24T02:44:30;100615.44;;;7.96;58.30
15604;BME280;7902;49.042;9.092;2023-01-24T02:46:57;100620.56;;;7.99;58.41
15604;BME280;7902;49.042;9.092;2023-01-24T02:49:23;100619.59;;;8.02;58.03
15604;BME280;7902;49.042;9.092;2023-01-24T02:51:49;100618.00;;;7.98;58.47
15604;BME280;7902;49.042;9.092;2023-01-24T02:54:33;100631.03;;;7.99;58.23
15604;BME280;7902;49.042;9.092;2023-01-24T02:56:59;100630.00;;;8.03;58.01
15604;BME280;7902;49.042;9.092;2023-01-24T02:59:44;100630.78;;;8.05;57.92
15604;BME280;7902;49.042;9.092;2023-01-24T03:02:10;100626.56;;;8.01;58.01
15604;BME280;7902;49.042;9.092;2023-01-24T03:04:36;100629.09;;;8.04;57.86
15604;BME280;7902;49.042;9.092;2023-01-24T03:07:02;100631.59;;;8.07;57.94
15604;BME280;7902;49.042;9.092;2023-01-24T03:09:28;100631.81;;;8.01;58.07
15604;BME280;7902;49.042;9.092;2023-01-24T03:12:01;100635.09;;;8.06;58.20
15604;BME280;7902;49.042;9.092;2023-01-24T03:14:45;100636.78;;;8.09;58.02
15604;BME280;7902;49.042;9.092;2023-01-24T03:17:30;100623.34;;;7.94;58.28
15604;BME280;7902;49.042;9.092;2023-01-24T03:20:15;100620.28;;;7.83;58.46
15604;BME280;7902;49.042;9.092;2023-01-24T03:22:59;100616.19;;;8.00;58.08
15604;BME280;7902;49.042;9.092;2023-01-24T03:25:44;100618.84;;;7.98;58.51
15604;BME280;7902;49.042;9.092;2023-01-24T03:28:28;100605.72;;;8.00;58.24
15604;BME280;7902;49.042;9.092;2023-01-24T03:31:12;100602.13;;;8.02;58.13
15604;BME280;7902;49.042;9.092;2023-01-24T03:33:57;100609.84;;;8.05;58.13
15604;BME280;7902;49.042;9.092;2023-01-24T03:36:41;100613.28;;;8.07;57.94
15604;BME280;7902;49.042;9.092;2023-01-24T03:39:09;100619.22;;;8.11;57.79
15604;BME280;7902;49.042;9.092;2023-01-24T03:41:54;100626.47;;;8.04;58.25
15604;BME280;7902;49.042;9.092;2023-01-24T03:44:19;100623.00;;;8.04;58.17
15604;BME280;7902;49.042;9.092;2023-01-24T03:46:45;100631.75;;;8.03;58.23
15604;BME280;7902;49.042;9.092;2023-01-24T03:49:11;100629.19;;;8.01;58.20
15604;BME280;7902;49.042;9.092;2023-01-24T03:51:37;100617.78;;;8.04;58.28
15604;BME280;7902;49.042;9.092;2023-01-24T03:54:21;100614.13;;;8.08;58.10
15604;BME280;7902;49.042;9.092;2023-01-24T03:56:47;100621.00;;;7.87;58.50
15604;BME280;7902;49.042;9.092;2023-01-24T03:59:13;100618.16;;;7.93;58.31
15604;BME280;7902;49.042;9.092;2023-01-24T04:01:39;100629.38;;;7.97;58.30
15604;BME280;7902;49.042;9.092;2023-01-24T04:04:05;100636.00;;;7.82;58.69
15604;BME280;7902;49.042;9.092;2023-01-24T04:06:31;100625.78;;;7.99;58.09
15604;BME280;7902;49.042;9.092;2023-01-24T04:08:57;100624.44;;;7.89;58.25
15604;BME280;7902;49.042;9.092;2023-01-24T04:11:23;100629.44;;;7.95;58.32
15604;BME280;7902;49.042;9.092;2023-01-24T04:13:49;100627.00;;;7.90;58.72
15604;BME280;7902;49.042;9.092;2023-01-24T04:16:15;100624.94;;;7.99;58.17
15604;BME280;7902;49.042;9.092;2023-01-24T04:18:43;100624.09;;;7.98;58.29
15604;BME280;7902;49.042;9.092;2023-01-24T04:21:09;100629.09;;;8.04;58.42
15604;BME280;7902;49.042;9.092;2023-01-24T04:23:37;100620.56;;;7.99;58.49
15604;BME280;7902;49.042;9.092;2023-01-24T04:26:03;100616.19;;;8.00;58.15
15604;BME280;7902;49.042;9.092;2023-01-24T04:28:30;100618.91;;;7.97;58.42
15604;BME280;7902;49.042;9.092;2023-01-24T04:30:57;100617.94;;;7.99;58.49
15604;BME280;7902;49.042;9.092;2023-01-24T04:33:24;100621.69;;;7.92;58.48
15604;BME280;7902;49.042;9.092;2023-01-24T04:35:50;100615.78;;;7.87;58.78
15604;BME280;7902;49.042;9.092;2023-01-24T04:38:16;100625.38;;;7.86;58.57
15604;BME280;7902;49.042;9.092;2023-01-24T04:40:42;100623.41;;;7.93;58.17
15604;BME280;7902;49.042;9.092;2023-01-24T04:43:08;100629.09;;;8.04;57.90
15604;BME280;7902;49.042;9.092;2023-01-24T04:45:34;100624.44;;;7.89;58.18
15604;BME280;7902;49.042;9.092;2023-01-24T04:48:00;100630.41;;;7.92;58.53
15604;BME280;7902;49.042;9.092;2023-01-24T04:50:25;100631.75;;;8.03;58.34
15604;BME280;7902;49.042;9.092;2023-01-24T04:52:51;100635.22;;;8.03;57.97
15604;BME280;7902;49.042;9.092;2023-01-24T04:55:17;100634.41;;;8.01;58.10
15604;BME280;7902;49.042;9.092;2023-01-24T04:57:43;100626.66;;;8.00;57.93
15604;BME280;7902;49.042;9.092;2023-01-24T05:00:10;100625.50;;;8.07;57.76
15604;BME280;7902;49.042;9.092;2023-01-24T05:02:36;100638.56;;;8.07;57.80
15604;BME280;7902;49.042;9.092;2023-01-24T05:05:04;100637.03;;;8.01;58.36
15604;BME280;7902;49.042;9.092;2023-01-24T05:07:30;100633.66;;;7.99;58.05
15604;BME280;7902;49.042;9.092;2023-01-24T05:09:56;100638.03;;;7.99;58.47
15604;BME280;7902;49.042;9.092;2023-01-24T05:12:22;100642.34;;;8.00;58.30
15604;BME280;7902;49.042;9.092;2023-01-24T05:14:48;100646.47;;;8.05;57.94
15604;BME280;7902;49.042;9.092;2023-01-24T05:17:14;100659.69;;;8.02;58.28
15604;BME280;7902;49.042;9.092;2023-01-24T05:19:40;100658.03;;;8.00;58.00
15604;BME280;7902;49.042;9.092;2023-01-24T05:22:05;100661.38;;;8.03;58.30
15604;BME280;7902;49.042;9.092;2023-01-24T05:24:31;100669.41;;;7.99;58.09
15604;BME280;7902;49.042;9.092;2023-01-24T05:26:57;100662.84;;;7.87;58.75
15604;BME280;7902;49.042;9.092;2023-01-24T05:29:23;100662.41;;;7.99;58.28
15604;BME280;7902;49.042;9.092;2023-01-24T05:31:49;100654.28;;;8.07;57.97
15604;BME280;7902;49.042;9.092;2023-01-24T05:34:15;100653.50;;;8.05;58.02
15604;BME280;7902;49.042;9.092;2023-01-24T05:36:41;100658.66;;;8.06;58.03
15604;BME280;7902;49.042;9.092;2023-01-24T05:39:07;100655.97;;;8.08;57.78
15604;BME280;7902;49.042;9.092;2023-01-24T05:41:33;100664.88;;;8.04;58.14
15604;BME280;7902;49.042;9.092;2023-01-24T05:43:58;100670.09;;;8.04;58.00
15604;BME280;7902;49.042;9.092;2023-01-24T05:46:25;100658.78;;;8.03;57.94
15604;BME280;7902;49.042;9.092;2023-01-24T05:48:51;100669.94;;;8.08;58.68
15604;BME280;7902;49.042;9.092;2023-01-24T05:51:18;100673.78;;;7.98;58.07
15604;BME280;7902;49.042;9.092;2023-01-24T05:53:46;100669.53;;;7.96;58.24
15604;BME280;7902;49.042;9.092;2023-01-24T05:56:14;100672.75;;;8.02;58.25
15604;BME280;7902;49.042;9.092;2023-01-24T05:58:42;100678.81;;;8.04;58.17
15604;BME280;7902;49.042;9.092;2023-01-24T06:01:11;100682.03;;;8.11;58.26
15604;BME280;7902;49.042;9.092;2023-01-24T06:03:38;100686.31;;;8.13;57.87
15604;BME280;7902;49.042;9.092;2023-01-24T06:06:05;100684.28;;;7.97;58.25
15604;BME280;7902;49.042;9.092;2023-01-24T06:08:31;100683.00;;;8.08;58.04
15604;BME280;7902;49.042;9.092;2023-01-24T06:11:14;100690.47;;;8.19;57.91
15604;BME280;7902;49.042;9.092;2023-01-24T06:13:41;100693.25;;;8.14;57.74
15604;BME280;7902;49.042;9.092;2023-01-24T06:18:38;100706.09;;;8.20;57.86
15604;BME280;7902;49.042;9.092;2023-01-24T06:21:16;100707.06;;;8.18;57.79
15604;BME280;7902;49.042;9.092;2023-01-24T06:23:46;100709.50;;;8.22;57.53
15604;BME280;7902;49.042;9.092;2023-01-24T06:26:12;100718.22;;;8.23;57.57
15604;BME280;7902;49.042;9.092;2023-01-24T06:28:38;100703.72;;;8.14;58.07
15604;BME280;7902;49.042;9.092;2023-01-24T06:31:18;100697.47;;;8.18;57.59
15604;BME280;7902;49.042;9.092;2023-01-24T06:38:54;100706.38;;;8.13;57.93
15604;BME280;7902;49.042;9.092;2023-01-24T06:41:20;100716.00;;;8.12;58.02
15604;BME280;7902;49.042;9.092;2023-01-24T06:43:47;100717.47;;;8.19;58.02
15604;BME280;7902;49.042;9.092;2023-01-24T06:46:13;100719.47;;;8.13;57.60
15604;BME280;7902;49.042;9.092;2023-01-24T06:48:42;100721.75;;;8.22;58.00
15604;BME280;7902;49.042;9.092;2023-01-24T06:51:11;100721.00;;;8.18;57.73
15604;BME280;7902;49.042;9.092;2023-01-24T06:53:38;100719.84;;;8.02;58.42
15604;BME280;7902;49.042;9.092;2023-01-24T06:56:05;100730.72;;;8.15;57.81
15604;BME280;7902;49.042;9.092;2023-01-24T06:58:31;100733.16;;;8.19;57.80
15604;BME280;7902;49.042;9.092;2023-01-24T07:00:57;100738.63;;;8.13;58.17
15604;BME280;7902;49.042;9.092;2023-01-24T07:03:23;100747.50;;;8.09;58.05
15604;BME280;7902;49.042;9.092;2023-01-24T07:05:49;100737.72;;;8.14;58.08
15604;BME280;7902;49.042;9.092;2023-01-24T07:08:15;100745.31;;;7.97;58.55
15604;BME280;7902;49.042;9.092;2023-01-24T07:10:43;100740.22;;;8.17;58.56
15604;BME280;7902;49.042;9.092;2023-01-24T07:13:08;100751.13;;;8.05;58.10
15604;BME280;7902;49.042;9.092;2023-01-24T07:15:34;100753.53;;;8.11;58.41
15604;BME280;7902;49.042;9.092;2023-01-24T07:18:08;100755.00;;;7.95;58.73
15604;BME280;7902;49.042;9.092;2023-01-24T07:20:34;100743.34;;;8.04;58.48
15604;BME280;7902;49.042;9.092;2023-01-24T07:23:00;100753.81;;;8.04;58.39
15604;BME280;7902;49.042;9.092;2023-01-24T07:25:27;100742.63;;;8.00;58.62
15604;BME280;7902;49.042;9.092;2023-01-24T07:27:54;100753.44;;;7.89;58.73
15604;BME280;7902;49.042;9.092;2023-01-24T07:30:20;100756.59;;;7.99;58.43
15604;BME280;7902;49.042;9.092;2023-01-24T07:32:46;100762.72;;;7.98;58.83
15604;BME280;7902;49.042;9.092;2023-01-24T07:35:11;100755.34;;;8.09;58.47
15604;BME280;7902;49.042;9.092;2023-01-24T07:37:37;100755.53;;;8.05;58.42
15604;BME280;7902;49.042;9.092;2023-01-24T07:40:05;100758.59;;;7.91;59.08
15604;BME280;7902;49.042;9.092;2023-01-24T07:42:31;100761.53;;;8.07;58.48
15604;BME280;7902;49.042;9.092;2023-01-24T07:44:57;100758.19;;;8.03;58.40
15604;BME280;7902;49.042;9.092;2023-01-24T07:47:23;100754.66;;;8.04;58.65
15604;BME280;7902;49.042;9.092;2023-01-24T07:49:52;100757.16;;;8.07;58.46
15604;BME280;7902;49.042;9.092;2023-01-24T07:52:18;100752.75;;;8.09;58.19
15604;BME280;7902;49.042;9.092;2023-01-24T07:54:44;100752.94;;;8.03;58.67
15604;BME280;7902;49.042;9.092;2023-01-24T07:57:09;100762.56;;;8.03;58.50
15604;BME280;7902;49.042;9.092;2023-01-24T07:59:35;100755.44;;;8.06;58.29
15604;BME280;7902;49.042;9.092;2023-01-24T08:02:01;100763.22;;;8.09;58.39
15604;BME280;7902;49.042;9.092;2023-01-24T08:04:27;100773.69;;;8.09;58.46
15604;BME280;7902;49.042;9.092;2023-01-24T08:06:53;100766.81;;;8.05;58.60
15604;BME280;7902;49.042;9.092;2023-01-24T08:09:37;100772.66;;;7.88;58.88
15604;BME280;7902;49.042;9.092;2023-01-24T08:12:03;100770.78;;;7.92;58.96
15604;BME280;7902;49.042;9.092;2023-01-24T08:14:29;100776.53;;;8.02;58.57
15604;BME280;7902;49.042;9.092;2023-01-24T08:16:55;100788.75;;;8.01;58.95
15604;BME280;7902;49.042;9.092;2023-01-24T08:19:21;100790.59;;;7.99;59.11
15604;BME280;7902;49.042;9.092;2023-01-24T08:21:47;100793.13;;;8.01;58.91
15604;BME280;7902;49.042;9.092;2023-01-24T08:24:12;100799.84;;;8.09;58.21
15604;BME280;7902;49.042;9.092;2023-01-24T08:26:38;100800.81;;;8.05;58.36
15604;BME280;7902;49.042;9.092;2023-01-24T08:29:04;100801.69;;;8.06;58.82
15604;BME280;7902;49.042;9.092;2023-01-24T08:31:30;100800.03;;;8.03;58.66
15604;BME280;7902;49.042;9.092;2023-01-24T08:33:56;100801.84;;;8.01;58.64
15604;BME280;7902;49.042;9.092;2023-01-24T08:36:22;100802.50;;;8.08;58.64
15604;BME280;7902;49.042;9.092;2023-01-24T08:38:49;100808.47;;;8.11;58.55
15604;BME280;7902;49.042;9.092;2023-01-24T08:41:15;100801.97;;;7.98;58.63
15604;BME280;7902;49.042;9.092;2023-01-24T08:43:41;100806.34;;;7.98;58.95
15604;BME280;7902;49.042;9.092;2023-01-24T08:46:07;100807.84;;;7.80;59.59
15604;BME280;7902;49.042;9.092;2023-01-24T08:48:33;100809.13;;;7.93;59.43
15604;BME280;7902;49.042;9.092;2023-01-24T08:51:03;100809.94;;;7.95;58.79
15604;BME280;7902;49.042;9.092;2023-01-24T08:53:29;100805.81;;;7.88;59.24
15604;BME280;7902;49.042;9.092;2023-01-24T08:55:55;100812.94;;;7.83;59.50
15604;BME280;7902;49.042;9.092;2023-01-24T08:58:21;100812.47;;;7.97;58.99
15604;BME280;7902;49.042;9.092;2023-01-24T09:00:47;100812.44;;;7.98;59.12
15604;BME280;7902;49.042;9.092;2023-01-24T09:03:16;100815.63;;;8.06;59.08
15604;BME280;7902;49.042;9.092;2023-01-24T09:05:42;100816.84;;;7.96;58.96
15604;BME280;7902;49.042;9.092;2023-01-24T09:08:09;100821.84;;;8.04;58.86
15604;BME280;7902;49.042;9.092;2023-01-24T09:10:35;100824.06;;;7.89;59.53
15604;BME280;7902;49.042;9.092;2023-01-24T09:13:02;100817.53;;;8.01;58.67
15604;BME280;7902;49.042;9.092;2023-01-24T09:15:29;100821.19;;;7.97;59.46
15604;BME280;7902;49.042;9.092;2023-01-24T09:17:55;100835.38;;;7.90;59.29
15604;BME280;7902;49.042;9.092;2023-01-24T09:20:21;100822.88;;;7.98;59.46
15604;BME280;7902;49.042;9.092;2023-01-24T09:22:47;100822.94;;;7.97;59.50
15604;BME280;7902;49.042;9.092;2023-01-24T09:25:13;100824.81;;;7.93;59.23
15604;BME280;7902;49.042;9.092;2023-01-24T09:27:39;100830.16;;;7.90;59.31
15604;BME280;7902;49.042;9.092;2023-01-24T09:30:09;100835.47;;;7.87;59.54
15604;BME280;7902;49.042;9.092;2023-01-24T09:32:35;100830.16;;;7.90;59.27
15604;BME280;7902;49.042;9.092;2023-01-24T09:35:02;100836.09;;;7.95;59.50
15604;BME280;7902;49.042;9.092;2023-01-24T09:37:28;100836.44;;;7.84;59.50
15604;BME280;7902;49.042;9.092;2023-01-24T09:39:53;100845.19;;;7.83;59.64
15604;BME280;7902;49.042;9.092;2023-01-24T09:42:35;100845.53;;;7.99;59.10
15604;BME280;7902;49.042;9.092;2023-01-24T09:45:21;100848.91;;;8.03;59.22
15604;BME280;7902;49.042;9.092;2023-01-24T09:47:53;100835.22;;;7.94;59.89
15604;BME280;7902;49.042;9.092;2023-01-24T09:50:25;100833.88;;;7.83;59.87
15604;BME280;7902;49.042;9.092;2023-01-24T09:52:56;100831.75;;;7.94;59.60
15604;BME280;7902;49.042;9.092;2023-01-24T10:00:25;100838.38;;;8.04;59.55
15604;BME280;7902;49.042;9.092;2023-01-24T10:02:55;100829.72;;;8.02;59.29
15604;BME280;7902;49.042;9.092;2023-01-24T10:05:43;100831.22;;;8.09;59.41
15604;BME280;7902;49.042;9.092;2023-01-24T10:12:01;100831.63;;;7.97;59.67
15604;BME280;7902;49.042;9.092;2023-01-24T10:20:17;100826.00;;;8.09;59.33
15604;BME280;7902;49.042;9.092;2023-01-24T10:28:45;100815.84;;;8.00;59.64
15604;BME280;7902;49.042;9.092;2023-01-24T10:31:16;100815.75;;;8.03;59.81
15604;BME280;7902;49.042;9.092;2023-01-24T10:33:53;100809.50;;;8.07;59.77
15604;BME280;7902;49.042;9.092;2023-01-24T10:36:34;100814.13;;;7.99;59.79
15604;BME280;7902;49.042;9.092;2023-01-24T10:39:04;100821.28;;;7.94;59.58
15604;BME280;7902;49.042;9.092;2023-01-24T10:41:31;100822.13;;;8.19;59.33
15604;BME280;7902;49.042;9.092;2023-01-24T10:44:14;100822.03;;;8.22;59.34
15604;BME280;7902;49.042;9.092;2023-01-24T10:49:36;100823.16;;;8.15;59.60
15604;BME280;7902;49.042;9.092;2023-01-24T10:52:17;100822.28;;;8.41;58.68
15604;BME280;7902;49.042;9.092;2023-01-24T10:59:44;100815.44;;;8.37;58.72
15604;BME280;7902;49.042;9.092;2023-01-24T11:02:20;100815.31;;;8.15;59.50
15604;BME280;7902;49.042;9.092;2023-01-24T11:04:46;100817.25;;;8.35;58.76
15604;BME280;7902;49.042;9.092;2023-01-24T11:07:27;100821.75;;;8.31;59.30
15604;BME280;7902;49.042;9.092;2023-01-24T11:09:53;100806.16;;;8.27;59.40
15604;BME280;7902;49.042;9.092;2023-01-24T11:12:19;100808.19;;;8.44;58.80
15604;BME280;7902;49.042;9.092;2023-01-24T11:14:48;100807.25;;;8.21;59.24
15604;BME280;7902;49.042;9.092;2023-01-24T11:17:31;100810.25;;;8.35;59.42
15604;BME280;7902;49.042;9.092;2023-01-24T11:20:20;100813.56;;;8.41;59.03
15604;BME280;7902;49.042;9.092;2023-01-24T11:22:51;100815.69;;;8.29;59.28
15604;BME280;7902;49.042;9.092;2023-01-24T11:25:17;100818.44;;;8.25;59.16
15604;BME280;7902;49.042;9.092;2023-01-24T11:27:48;100820.59;;;8.38;59.07
15604;BME280;7902;49.042;9.092;2023-01-24T11:30:16;100809.75;;;8.49;58.68
15604;BME280;7902;49.042;9.092;2023-01-24T11:33:15;100808.66;;;8.31;59.18
15604;BME280;7902;49.042;9.092;2023-01-24T11:35:52;100807.28;;;8.68;58.42
15604;BME280;7902;49.042;9.092;2023-01-24T11:38:28;100806.94;;;8.54;58.96
15604;BME280;7902;49.042;9.092;2023-01-24T11:41:13;100804.47;;;8.26;59.21
15604;BME280;7902;49.042;9.092;2023-01-24T11:46:55;100803.78;;;8.46;59.02
15604;BME280;7902;49.042;9.092;2023-01-24T11:49:41;100801.94;;;8.48;58.72
15604;BME280;7902;49.042;9.092;2023-01-24T11:52:36;100796.09;;;8.64;58.38
15604;BME280;7902;49.042;9.092;2023-01-24T11:55:43;100796.25;;;8.60;58.15
15604;BME280;7902;49.042;9.092;2023-01-24T12:01:49;100786.47;;;8.42;58.65
15604;BME280;7902;49.042;9.092;2023-01-24T12:09:35;100792.09;;;8.77;58.01
15604;BME280;7902;49.042;9.092;2023-01-24T12:19:55;100761.84;;;8.47;59.08
15604;BME280;7902;49.042;9.092;2023-01-24T12:22:25;100768.94;;;8.44;58.63
15604;BME280;7902;49.042;9.092;2023-01-24T12:25:00;100763.53;;;8.48;58.92
15604;BME280;7902;49.042;9.092;2023-01-24T12:27:31;100761.31;;;8.61;58.76
15604;BME280;7902;49.042;9.092;2023-01-24T12:30:04;100742.31;;;8.56;58.75
15604;BME280;7902;49.042;9.092;2023-01-24T12:32:37;100758.78;;;8.58;58.56
15604;BME280;7902;49.042;9.092;2023-01-24T12:35:28;100758.41;;;8.45;59.04
15604;BME280;7902;49.042;9.092;2023-01-24T12:41:02;100755.28;;;8.35;58.95
15604;BME280;7902;49.042;9.092;2023-01-24T12:43:53;100759.44;;;8.41;59.06
15604;BME280;7902;49.042;9.092;2023-01-24T12:46:32;100752.19;;;8.48;59.06
15604;BME280;7902;49.042;9.092;2023-01-24T12:54:14;100749.00;;;8.63;58.54
15604;BME280;7902;49.042;9.092;2023-01-24T12:56:46;100754.09;;;8.44;59.06
15604;BME280;7902;49.042;9.092;2023-01-24T12:59:13;100755.41;;;8.56;58.81
15604;BME280;7902;49.042;9.092;2023-01-24T13:02:16;100761.59;;;8.53;59.10
15604;BME280;7902;49.042;9.092;2023-01-24T13:07:54;100759.94;;;8.51;58.57
15604;BME280;7902;49.042;9.092;2023-01-24T13:10:30;100763.25;;;8.56;58.91
15604;BME280;7902;49.042;9.092;2023-01-24T13:13:01;100754.22;;;8.41;59.09
15604;BME280;7902;49.042;9.092;2023-01-24T13:16:11;100756.97;;;8.60;58.92
15604;BME280;7902;49.042;9.092;2023-01-24T13:19:01;100754.81;;;8.48;59.18
15604;BME280;7902;49.042;9.092;2023-01-24T13:21:41;100764.00;;;8.36;59.40
15604;BME280;7902;49.042;9.092;2023-01-24T13:24:40;100759.72;;;8.57;58.92
15604;BME280;7902;49.042;9.092;2023-01-24T13:30:16;100755.44;;;8.54;58.33
15604;BME280;7902;49.042;9.092;2023-01-24T13:32:44;100756.25;;;8.56;58.68
15604;BME280;7902;49.042;9.092;2023-01-24T13:35:21;100742.84;;;8.42;59.38
15604;BME280;7902;49.042;9.092;2023-01-24T13:38:01;100745.31;;;8.45;59.35
15604;BME280;7902;49.042;9.092;2023-01-24T13:40:29;100750.38;;;8.50;58.84
15604;BME280;7902;49.042;9.092;2023-01-24T13:42:57;100753.00;;;8.50;58.88
15604;BME280;7902;49.042;9.092;2023-01-24T13:47:53;100754.88;;;8.46;59.16
15604;BME280;7902;49.042;9.092;2023-01-24T13:50:20;100760.00;;;8.49;59.11
15604;BME280;7902;49.042;9.092;2023-01-24T13:52:51;100758.13;;;8.53;58.70
15604;BME280;7902;49.042;9.092;2023-01-24T14:00:53;100763.78;;;8.42;59.29
15604;BME280;7902;49.042;9.092;2023-01-24T14:03:36;100766.44;;;8.41;58.99
15604;BME280;7902;49.042;9.092;2023-01-24T14:27:46;100773.56;;;8.37;59.17
15604;BME280;7902;49.042;9.092;2023-01-24T14:32:52;100776.91;;;8.41;59.07
15604;BME280;7902;49.042;9.092;2023-01-24T14:35:35;100775.50;;;8.32;59.16
15604;BME280;7902;49.042;9.092;2023-01-24T14:38:17;100763.69;;;8.44;59.30
15604;BME280;7902;49.042;9.092;2023-01-24T14:40:51;100767.16;;;8.44;59.37
15604;BME280;7902;49.042;9.092;2023-01-24T14:43:18;100768.25;;;8.38;59.37
15604;BME280;7902;49.042;9.092;2023-01-24T14:45:46;100769.63;;;8.49;59.29
15604;BME280;7902;49.042;9.092;2023-01-24T14:48:23;100764.47;;;8.47;59.12
15604;BME280;7902;49.042;9.092;2023-01-24T14:50:57;100767.47;;;8.36;59.42
15604;BME280;7902;49.042;9.092;2023-01-24T14:53:28;100767.69;;;8.30;59.46
15604;BME280;7902;49.042;9.092;2023-01-24T14:55:59;100773.22;;;8.46;58.86
15604;BME280;7902;49.042;9.092;2023-01-24T14:58:28;100761.75;;;8.49;59.37
15604;BME280;7902;49.042;9.092;2023-01-24T15:00:57;100767.63;;;8.55;58.67
15604;BME280;7902;49.042;9.092;2023-01-24T15:03:26;100772.78;;;8.33;59.50
15604;BME280;7902;49.042;9.092;2023-01-24T15:08:29;100771.50;;;8.45;59.08
15604;BME280;7902;49.042;9.092;2023-01-24T15:10:59;100772.47;;;8.43;59.40
15604;BME280;7902;49.042;9.092;2023-01-24T15:13:41;100775.94;;;8.43;59.17
15604;BME280;7902;49.042;9.092;2023-01-24T15:16:16;100774.28;;;8.41;59.24